• Join FlightAware (Why Join?)
  • Login
  • US Flag 
08:25PM EDT


 

Airport Tracker/Info


-or-


 

Live Flight TrackerFlight Track Log ✈ LYM903 ✈ 19-Jun-2012 ✈ KAPA - KGJT

Flight Track Log - Related Links

Times and Time Zones

All times are in EDT time to prevent confusion due to time zone crossing. See the LYM903 flight status page for this flight to view local times or setup timezone preferences in your user account.

Time Position Orientation Groundspeed Altitude Reporting Facility
EDT Latitude Longitude Course Direction KTS MPH feet Rate Location/Type
08:30AM 39.5500 -104.8667 281° West 126 145 6,200  Level Denver TRACON
08:35AM 39.5833 -105.0833 257° West 129 148 10,600 840 Climbing Denver TRACON
08:36AM 39.5772 -105.1183 280° West 128 147 11,200 720 Climbing Denver Center
08:37AM 39.5836 -105.1650 290° West 124 143 11,900 660 Climbing Denver Center
08:38AM 39.5961 -105.2086 289° West 130 150 12,600 660 Climbing Denver Center
08:39AM 39.6078 -105.2536 285° West 131 151 13,300 600 Climbing Denver Center
08:40AM 39.6178 -105.3006 286° West 134 154 13,900 600 Climbing Denver Center
08:41AM 39.6300 -105.3564 287° West 145 167 14,600 600 Climbing Denver Center
08:42AM 39.6417 -105.4072 287° West 147 169 15,200 480 Climbing Denver Center
08:43AM 39.6536 -105.4578 287° West 147 169 15,700 480 Climbing Denver Center
08:44AM 39.6664 -105.5131 286° West 148 170 16,300 480 Climbing Denver Center
08:45AM 39.6778 -105.5650 262° West 149 171 16,800 300 Climbing Denver Center
08:46AM 39.6722 -105.6192 257° West 152 175 17,000 60 Climbing Denver Center
08:47AM 39.6611 -105.6822 257° West 178 205 17,000 -60 Level Denver Center
08:48AM 39.6486 -105.7506 258° West 180 207 16,900  Descending Denver Center
08:49AM 39.6381 -105.8150 256° West 182 209 17,000 -60 Climbing Denver Center
08:50AM 39.6261 -105.8792 257° West 177 204 16,800 -120 Descending Denver Center
08:51AM 39.6150 -105.9406 257° West 175 201 16,800 -60 Level Denver Center
08:52AM 39.6042 -106.0006 257° West 171 197 16,700 -60 Descending Denver Center
08:53AM 39.5933 -106.0633 258° West 174 200 16,700  Level Denver Center
08:54AM 39.5825 -106.1292 256° West 182 209 16,800 120 Climbing Denver Center
08:55AM 39.5703 -106.1942 256° West 186 214 17,000  Climbing Denver Center
08:56AM 39.5578 -106.2597 257° West 187 215 16,900  Descending Denver Center
08:57AM 39.5464 -106.3239 257° West 184 212 17,000  Climbing Denver Center
08:58AM 39.5347 -106.3881 258° West 183 211 17,000  Level Denver Center
08:59AM 39.5239 -106.4525 256° West 183 211 17,000  Level Denver Center
09:00AM 39.5100 -106.5264 256° West 182 209 17,000  Level Denver Center
09:01AM 39.4981 -106.5872 257° West 181 208 17,000 -60 Level Denver Center
09:02AM 39.4853 -106.6578 256° West 181 208 16,900 -120 Descending Denver Center
09:03AM 39.4739 -106.7186 256° West 182 209 16,800  Descending Denver Center
09:04AM 39.4614 -106.7814 255° West 186 214 16,900 -60 Climbing Denver Center
09:05AM 39.4458 -106.8547 254° West 188 216 16,700 -60 Descending Denver Center
09:06AM 39.4328 -106.9147 256° West 184 212 16,800  Climbing Denver Center
09:07AM 39.4194 -106.9847 258° West 180 207 16,800  Level Denver Center
09:08AM 39.4094 -107.0453 255° West 180 207 16,800  Level Denver Center
09:09AM 39.3967 -107.1078 255° West 180 207 16,800 -60 Level Denver Center
09:10AM 39.3839 -107.1703 256° West 179 206 16,700  Descending Denver Center
09:12AM 39.3708 -107.2356 256° West 181 208 16,800  Climbing Denver Center
09:13AM 39.3569 -107.3067 256° West 183 211 16,800 60 Level Denver Center
09:14AM 39.3456 -107.3672 256° West 182 209 17,000 60 Climbing Denver Center
09:15AM 39.3347 -107.4231 255° West 174 200 17,000  Level Denver Center
09:16AM 39.3214 -107.4892 257° West 171 197 17,000 -60 Level Denver Center
09:17AM 39.3111 -107.5464 256° West 171 197 16,900 -480 Descending Denver Center
09:18AM 39.2969 -107.6214 255° West 189 217 16,100 -900 Descending Denver Center
09:19AM 39.2822 -107.6931 256° West 209 241 15,100 -600 Descending Denver Center
09:20AM 39.2686 -107.7619 256° West 210 242 15,000 -60 Descending Denver Center
09:21AM 39.2556 -107.8319 254° West 188 216 15,000  Level Denver Center
09:22AM 39.2417 -107.8944 257° West 173 199 15,000 -60 Level Denver Center
09:23AM 39.2303 -107.9558 256° West 175 201 14,900 -720 Descending Denver Center
09:24AM 39.2167 -108.0264 256° West 212 244 13,600 -1,320 Descending Denver Center
09:25AM 39.2011 -108.1061 256° West 213 245 12,300 -1,200 Descending Denver Center
09:26AM 39.1872 -108.1792 262° West 210 242 11,200 -1,020 Descending Denver Center
09:27AM 39.1794 -108.2503 256° West 201 231 10,300 -900 Descending Denver Center
09:28AM 39.1656 -108.3211 256° West 192 221 9,400 -720 Descending Denver Center
09:29AM 39.1533 -108.3844 258° West 192 221 8,900 -480 Descending Denver Center
09:30AM 39.1433 -108.4469 301° West 184 212 8,500 -540 Descending Denver Center
09:31AM 39.1694 -108.5039 273° West 175 201 7,900 -1,020 Descending Denver Center
09:32AM 39.1714 -108.5525 186° South 156 180 6,500 -1,320 Descending Denver Center
09:33AM 39.1417 -108.5567 123° Southeast 136 157 5,300 -840 Descending Denver Center
09:34AM 39.1225 -108.5189 224° Southwest 129 148 4,800 -300 Descending Denver Center
09:35AM 39.1214 -108.5203 247° West 113 130 4,800  Level Denver Center
09:42AM 39.1151 -108.5393 247° West  Level FlightAware Approximate